Portada
METAR-TAF:

METAR-TAF

Aeroports :

Batam, Indonèsia

latitud: 01-07-15N, longitud: 104-07-07E, altitud: 38 m

Observació

L'informe es va fer fa 1 hora i 10 minuts, a les 14:00 UTC
Vent calma
Temperatura 26°C
Humitat 94%
Pressió 1014 hPa
Visibilitat 10 km o més
Escasses núvols a una alçada de 1400 ft

METAR: WIDD 181400Z 00000KT 9999 FEW014 26/25 Q1014

Hora: 22:10 (15:10 UTC)

Pronòstic

L'informe es va fer fa 4 hores i 10 minuts, a les 11:00 UTC
Pronòstic vàlid del 18 a les 12 UTC al 19 a les 12 UTC
Vent 4 kt del Sud
Visibilitat 10 km o més
Escasses núvols a una alçada de 1400 ft

TAF: WIDD 181100Z 1812/1912 19004KT 9999 FEW014

Observacions i pronòstics meteorològics de més de 4000 aeroports (METAR i TAF).

Les estacions disponibles són els punts grocs i vermells al mapa.

Posi el ratolí al punt desitjat per veure el nom de l'estació.

Feu clic per veure les observacions i els pronòstics meteorològics.

Per canviar el mapa: feu clic els botons verds amb una creu de color negre per apropar; al botó verd amb un guió per allunyar la imatge; o en les fletxes verdes per a mapes adjacents.


METAR-TAF: